createdAt,value
2018-02-25T00:00:30.740Z,927.96
2018-02-25T00:02:02.555Z,927.98
2018-02-25T00:03:34.620Z,928.00
2018-02-25T00:05:06.185Z,928.02
2018-02-25T00:06:38.001Z,927.95
2018-02-25T00:08:09.819Z,927.91
2018-02-25T00:09:41.630Z,927.90
2018-02-25T00:11:13.449Z,927.87
2018-02-25T00:12:45.260Z,927.98
2018-02-25T00:14:17.075Z,928.02
2018-02-25T00:15:48.889Z,928.04
2018-02-25T00:17:20.704Z,928.06
2018-02-25T00:18:52.519Z,928.05
2018-02-25T00:20:24.333Z,928.09
2018-02-25T00:21:56.249Z,928.08
2018-02-25T00:23:27.963Z,928.07
2018-02-25T00:24:59.778Z,928.10
2018-02-25T00:26:31.593Z,928.06
2018-02-25T00:28:03.408Z,928.02
2018-02-25T00:29:35.223Z,928.04
2018-02-25T00:31:07.038Z,928.05
2018-02-25T00:32:38.853Z,928.05
2018-02-25T00:34:10.669Z,928.11
2018-02-25T00:35:42.483Z,928.12
2018-02-25T00:37:14.298Z,928.17
2018-02-25T00:38:46.116Z,928.20
2018-02-25T00:40:18.028Z,928.17
2018-02-25T00:41:49.742Z,928.19
2018-02-25T00:43:21.558Z,928.16
2018-02-25T00:44:53.372Z,928.16
2018-02-25T00:46:25.337Z,928.20
2018-02-25T00:47:57.002Z,928.20
2018-02-25T00:49:28.817Z,928.22
2018-02-25T00:51:00.632Z,928.29
2018-02-25T00:52:32.448Z,928.29
2018-02-25T00:54:04.264Z,928.30
2018-02-25T00:55:36.078Z,928.29
2018-02-25T00:57:07.891Z,928.31
2018-02-25T00:58:39.958Z,928.28
2018-02-25T01:00:11.522Z,928.30
2018-02-25T01:01:43.337Z,928.30
2018-02-25T01:03:15.152Z,928.26
2018-02-25T01:04:47.118Z,928.35
2018-02-25T01:06:18.782Z,928.30
2018-02-25T01:07:50.597Z,928.36
2018-02-25T01:09:22.412Z,928.34
2018-02-25T01:10:54.217Z,928.33
2018-02-25T01:12:26.032Z,928.29
2018-02-25T01:13:57.848Z,928.30
2018-02-25T01:15:29.662Z,928.33
2018-02-25T01:17:01.730Z,928.33
2018-02-25T01:18:33.298Z,928.30
2018-02-25T01:20:05.107Z,928.32
2018-02-25T01:21:36.921Z,928.32
2018-02-25T01:23:08.736Z,928.29
2018-02-25T01:24:40.552Z,928.26
2018-02-25T01:26:12.367Z,928.28
2018-02-25T01:27:44.181Z,928.29
2018-02-25T01:29:16.146Z,928.26
2018-02-25T01:30:47.811Z,928.29
2018-02-25T01:32:19.625Z,928.27
2018-02-25T01:33:51.442Z,928.26
2018-02-25T01:35:23.506Z,928.30
2018-02-25T01:36:55.071Z,928.28
2018-02-25T01:38:26.886Z,928.29
2018-02-25T01:39:58.700Z,928.30
2018-02-25T01:41:30.516Z,928.27
2018-02-25T01:43:02.331Z,928.29
2018-02-25T01:44:34.145Z,928.30
2018-02-25T01:46:05.960Z,928.28
2018-02-25T01:47:37.926Z,928.31
2018-02-25T01:49:09.590Z,928.31
2018-02-25T01:50:41.457Z,928.31
2018-02-25T01:52:13.224Z,928.31
2018-02-25T01:53:45.134Z,928.27
2018-02-25T01:55:16.850Z,928.33
2018-02-25T01:56:48.665Z,928.34
2018-02-25T01:58:20.479Z,928.33
2018-02-25T01:59:52.445Z,928.28
2018-02-25T02:01:24.109Z,928.29
2018-02-25T02:02:55.924Z,928.32
2018-02-25T02:04:27.744Z,928.32
2018-02-25T02:05:59.707Z,928.30
2018-02-25T02:07:31.369Z,928.27
2018-02-25T02:09:03.184Z,928.23
2018-02-25T02:10:34.999Z,928.27
2018-02-25T02:12:07.064Z,928.29
2018-02-25T02:13:38.630Z,928.29
2018-02-25T02:15:10.444Z,928.33
2018-02-25T02:16:42.259Z,928.30
2018-02-25T02:18:14.224Z,928.24
2018-02-25T02:19:45.889Z,928.22
2018-02-25T02:21:17.704Z,928.18
2018-02-25T02:22:49.519Z,928.28
2018-02-25T02:24:21.484Z,928.23
2018-02-25T02:25:53.149Z,928.23
2018-02-25T02:27:24.965Z,928.22
2018-02-25T02:28:56.779Z,928.22
2018-02-25T02:30:28.848Z,928.18
2018-02-25T02:32:00.410Z,928.18
2018-02-25T02:33:32.224Z,928.25
2018-02-25T02:35:04.040Z,928.23
2018-02-25T02:36:36.004Z,928.19
2018-02-25T02:38:07.669Z,928.21
2018-02-25T02:39:39.483Z,928.23
2018-02-25T02:41:11.299Z,928.21
2018-02-25T02:42:43.114Z,928.17
2018-02-25T02:44:14.928Z,928.15
2018-02-25T02:45:46.743Z,928.16
2018-02-25T02:47:18.558Z,928.16
2018-02-25T02:48:50.474Z,928.17
2018-02-25T02:50:22.189Z,928.06
2018-02-25T02:51:54.003Z,928.09
2018-02-25T02:53:25.819Z,928.01
2018-02-25T02:54:57.785Z,927.94
2018-02-25T02:56:29.448Z,927.88
2018-02-25T02:58:01.263Z,927.89
2018-02-25T02:59:33.078Z,927.87
2018-02-25T03:01:05.046Z,927.83
2018-02-25T03:02:36.715Z,927.82
2018-02-25T03:04:08.522Z,927.81
2018-02-25T03:05:40.339Z,927.83
2018-02-25T03:07:12.853Z,927.84
2018-02-25T03:08:43.966Z,927.88
2018-02-25T03:10:15.781Z,927.87
2018-02-25T03:11:47.596Z,927.84
2018-02-25T03:13:19.410Z,927.80
2018-02-25T03:14:51.225Z,927.79
2018-02-25T03:16:23.041Z,927.71
2018-02-25T03:17:54.853Z,927.73
2018-02-25T03:19:26.823Z,927.68
2018-02-25T03:20:58.482Z,927.69
2018-02-25T03:22:30.296Z,927.69
2018-02-25T03:24:02.110Z,927.69
2018-02-25T03:25:34.023Z,927.67
2018-02-25T03:27:05.739Z,927.71
2018-02-25T03:28:37.552Z,927.70
2018-02-25T03:30:09.367Z,927.68
2018-02-25T03:31:41.330Z,927.58
2018-02-25T03:33:12.994Z,927.51
2018-02-25T03:34:44.807Z,927.57
2018-02-25T03:36:16.622Z,927.53
2018-02-25T03:37:48.586Z,927.48
2018-02-25T03:39:20.250Z,927.47
2018-02-25T03:40:52.063Z,927.50
2018-02-25T03:42:23.878Z,927.47
2018-02-25T03:43:55.792Z,927.44
2018-02-25T03:45:27.505Z,927.34
2018-02-25T03:46:59.320Z,927.40
2018-02-25T03:48:31.134Z,927.36
2018-02-25T03:50:03.099Z,927.34
2018-02-25T03:51:34.762Z,927.36
2018-02-25T03:53:06.576Z,927.40
2018-02-25T03:54:38.391Z,927.38
2018-02-25T03:56:10.205Z,927.40
2018-02-25T03:57:42.018Z,927.41
2018-02-25T03:59:13.834Z,927.38
2018-02-25T04:00:45.646Z,927.38
2018-02-25T04:02:17.560Z,927.32
2018-02-25T04:03:49.274Z,927.24
2018-02-25T04:05:21.088Z,927.24
2018-02-25T04:06:52.903Z,927.27
2018-02-25T04:08:24.865Z,927.29
2018-02-25T04:09:56.529Z,927.26
2018-02-25T04:11:28.343Z,927.26
2018-02-25T04:13:00.157Z,927.21
2018-02-25T04:14:31.970Z,927.23
2018-02-25T04:16:03.784Z,927.21
2018-02-25T04:17:35.598Z,927.17
2018-02-25T04:19:07.411Z,927.17
2018-02-25T04:20:39.476Z,927.12
2018-02-25T04:22:11.040Z,927.09
2018-02-25T04:23:42.852Z,927.08
2018-02-25T04:25:14.667Z,927.05
2018-02-25T04:26:46.480Z,927.01
2018-02-25T04:28:18.295Z,926.94
2018-02-25T04:29:50.108Z,926.94
2018-02-25T04:31:21.921Z,926.93
2018-02-25T04:32:53.885Z,926.92
2018-02-25T04:34:25.609Z,926.79
2018-02-25T04:35:57.367Z,926.82
2018-02-25T04:37:29.175Z,926.86
2018-02-25T04:39:01.240Z,926.85
2018-02-25T04:40:32.802Z,926.84
2018-02-25T04:42:04.616Z,926.80
2018-02-25T04:43:36.431Z,926.78
2018-02-25T04:45:08.243Z,926.80
2018-02-25T04:46:40.056Z,926.71
2018-02-25T04:48:11.871Z,926.66
2018-02-25T04:49:43.682Z,926.64
2018-02-25T04:51:15.646Z,926.67
2018-02-25T04:52:47.311Z,926.66
2018-02-25T04:54:19.122Z,926.70
2018-02-25T04:55:50.936Z,926.63
2018-02-25T04:57:22.849Z,926.63
2018-02-25T04:58:54.625Z,926.59
2018-02-25T05:00:26.375Z,926.55
2018-02-25T05:01:58.195Z,926.62
2018-02-25T05:03:30.153Z,926.54
2018-02-25T05:05:01.817Z,926.54
2018-02-25T05:06:33.630Z,926.47
2018-02-25T05:08:05.445Z,926.47
2018-02-25T05:09:37.408Z,926.48
2018-02-25T05:11:09.072Z,926.46
2018-02-25T05:12:40.886Z,926.45
2018-02-25T05:14:12.700Z,926.43
2018-02-25T05:15:44.763Z,926.37
2018-02-25T05:17:16.326Z,926.34
2018-02-25T05:18:48.140Z,926.35
2018-02-25T05:20:19.954Z,926.33
2018-02-25T05:21:51.918Z,926.33
2018-02-25T05:23:23.581Z,926.30
2018-02-25T05:24:55.400Z,926.30
2018-02-25T05:26:27.207Z,926.29
2018-02-25T05:27:59.020Z,926.29
2018-02-25T05:29:30.835Z,926.28
2018-02-25T05:31:02.648Z,926.24
2018-02-25T05:32:34.460Z,926.24
2018-02-25T05:34:06.529Z,926.32
2018-02-25T05:35:38.090Z,926.29
2018-02-25T05:37:09.901Z,926.26
2018-02-25T05:38:41.716Z,926.23
2018-02-25T05:40:13.678Z,926.25
2018-02-25T05:41:45.341Z,926.28
2018-02-25T05:43:17.154Z,926.30
2018-02-25T05:44:48.967Z,926.28
2018-02-25T05:46:20.932Z,926.27
2018-02-25T05:47:52.594Z,926.24
2018-02-25T05:49:24.413Z,926.23
2018-02-25T05:50:56.220Z,926.25
2018-02-25T05:52:28.336Z,926.27
2018-02-25T05:53:59.847Z,926.28
2018-02-25T05:55:31.661Z,926.23
2018-02-25T05:57:03.473Z,926.21
2018-02-25T05:58:35.448Z,926.25
2018-02-25T06:00:07.102Z,926.21
2018-02-25T06:01:38.916Z,926.19
2018-02-25T06:03:10.727Z,926.25
2018-02-25T06:04:42.545Z,926.19
2018-02-25T06:06:14.354Z,926.18
2018-02-25T06:07:46.167Z,926.16
2018-02-25T06:09:17.981Z,926.18
2018-02-25T06:10:50.746Z,926.16
2018-02-25T06:12:21.607Z,926.13
2018-02-25T06:13:53.420Z,926.15
2018-02-25T06:15:25.236Z,926.13
2018-02-25T06:16:57.046Z,926.16
2018-02-25T06:18:28.859Z,926.17
2018-02-25T06:20:00.673Z,926.09
2018-02-25T06:21:32.485Z,926.08
2018-02-25T06:23:04.451Z,926.14
2018-02-25T06:24:36.112Z,926.12
2018-02-25T06:26:07.925Z,926.09
2018-02-25T06:27:39.739Z,926.08
2018-02-25T06:29:11.652Z,926.08
2018-02-25T06:30:43.365Z,926.03
2018-02-25T06:32:15.179Z,926.03
2018-02-25T06:33:46.992Z,926.01
2018-02-25T06:35:18.959Z,925.98
2018-02-25T06:36:50.676Z,925.97
2018-02-25T06:38:22.432Z,925.95
2018-02-25T06:39:54.246Z,925.97
2018-02-25T06:41:26.060Z,925.95
2018-02-25T06:42:57.873Z,925.91
2018-02-25T06:44:29.686Z,925.91
2018-02-25T06:46:01.499Z,925.95
2018-02-25T06:47:33.414Z,926.00
2018-02-25T06:49:05.126Z,925.95
2018-02-25T06:50:36.940Z,925.97
2018-02-25T06:52:08.753Z,925.95
2018-02-25T06:53:40.717Z,925.92
2018-02-25T06:55:12.380Z,925.94
2018-02-25T06:56:44.193Z,925.96
2018-02-25T06:58:16.007Z,926.00
2018-02-25T06:59:47.819Z,925.99
2018-02-25T07:01:19.633Z,925.97
2018-02-25T07:02:51.446Z,925.93
2018-02-25T07:04:23.259Z,925.94
2018-02-25T07:05:55.323Z,925.93
2018-02-25T07:07:26.885Z,925.96
2018-02-25T07:08:58.698Z,925.98
2018-02-25T07:10:30.512Z,925.93
2018-02-25T07:12:02.478Z,925.95
2018-02-25T07:13:34.137Z,925.97
2018-02-25T07:15:05.957Z,925.99
2018-02-25T07:16:37.763Z,926.02
2018-02-25T07:18:09.576Z,925.97
2018-02-25T07:19:41.390Z,925.99
2018-02-25T07:21:13.210Z,926.01
2018-02-25T07:22:45.016Z,926.02
2018-02-25T07:24:17.080Z,926.03
2018-02-25T07:25:48.645Z,925.99
2018-02-25T07:27:20.453Z,926.02
2018-02-25T07:28:52.266Z,925.99
2018-02-25T07:30:24.231Z,926.04
2018-02-25T07:31:55.891Z,926.06
2018-02-25T07:33:27.705Z,926.07
2018-02-25T07:34:59.519Z,926.06
2018-02-25T07:36:31.331Z,926.05
2018-02-25T07:38:03.143Z,926.03
2018-02-25T07:39:34.956Z,926.05
2018-02-25T07:41:06.768Z,926.05
2018-02-25T07:42:38.835Z,926.05
2018-02-25T07:44:10.394Z,926.06
2018-02-25T07:45:42.207Z,926.06
2018-02-25T07:47:14.019Z,926.08
2018-02-25T07:48:45.831Z,926.10
2018-02-25T07:50:17.645Z,926.08
2018-02-25T07:51:49.457Z,926.05
2018-02-25T07:53:21.270Z,926.05
2018-02-25T07:54:53.233Z,926.08
2018-02-25T07:56:24.896Z,926.14
2018-02-25T07:57:56.708Z,926.14
2018-02-25T07:59:28.520Z,926.14
2018-02-25T08:01:00.433Z,926.15
2018-02-25T08:02:32.145Z,926.24
2018-02-25T08:04:03.962Z,926.24
2018-02-25T08:05:35.771Z,926.28
2018-02-25T08:07:07.736Z,926.26
2018-02-25T08:08:39.399Z,926.26
2018-02-25T08:10:11.209Z,926.27
2018-02-25T08:11:43.022Z,926.27
2018-02-25T08:13:14.985Z,926.28
2018-02-25T08:14:46.647Z,926.29
2018-02-25T08:16:18.460Z,926.28
2018-02-25T08:17:50.272Z,926.29
2018-02-25T08:19:22.185Z,926.32
2018-02-25T08:20:53.897Z,926.41
2018-02-25T08:22:25.710Z,926.37
2018-02-25T08:23:57.523Z,926.41
2018-02-25T08:25:29.485Z,926.43
2018-02-25T08:27:01.147Z,926.45
2018-02-25T08:28:32.959Z,926.46
2018-02-25T08:30:04.772Z,926.44
2018-02-25T08:31:36.737Z,926.47
2018-02-25T08:33:08.398Z,926.42
2018-02-25T08:34:40.209Z,926.41
2018-02-25T08:36:12.022Z,926.44
2018-02-25T08:37:44.091Z,926.40
2018-02-25T08:39:15.648Z,926.43
2018-02-25T08:40:47.460Z,926.39
2018-02-25T08:42:19.273Z,926.39
2018-02-25T08:43:51.235Z,926.38
2018-02-25T08:45:22.899Z,926.40
2018-02-25T08:46:54.713Z,926.42
2018-02-25T08:48:26.526Z,926.45
2018-02-25T08:49:58.486Z,926.49
2018-02-25T08:51:30.149Z,926.52
2018-02-25T08:53:01.964Z,926.53
2018-02-25T08:54:33.774Z,926.56
2018-02-25T08:56:05.836Z,926.55
2018-02-25T08:57:37.398Z,926.59
2018-02-25T08:59:09.214Z,926.57
2018-02-25T09:00:41.023Z,926.63
2018-02-25T09:02:12.988Z,926.63
2018-02-25T09:03:44.648Z,926.67
2018-02-25T09:05:16.460Z,926.72
2018-02-25T09:06:48.321Z,926.76
2018-02-25T09:08:20.236Z,926.82
2018-02-25T09:09:51.897Z,926.85
2018-02-25T09:11:23.710Z,926.88
2018-02-25T09:12:55.522Z,926.92
2018-02-25T09:14:27.636Z,927.00
2018-02-25T09:15:59.148Z,927.00
2018-02-25T09:17:30.960Z,927.04
2018-02-25T09:19:02.774Z,927.03
2018-02-25T09:20:34.590Z,927.05
2018-02-25T09:22:06.400Z,927.06
2018-02-25T09:23:38.216Z,927.11
2018-02-25T09:25:10.029Z,927.06
2018-02-25T09:26:41.883Z,927.03
2018-02-25T09:28:13.657Z,927.03
2018-02-25T09:29:45.471Z,926.97
2018-02-25T09:31:17.286Z,927.00
2018-02-25T09:32:49.351Z,927.01
2018-02-25T09:34:20.916Z,927.04
2018-02-25T09:35:52.760Z,927.02
2018-02-25T09:37:24.547Z,927.00
2018-02-25T09:38:56.518Z,927.03
2018-02-25T09:40:28.178Z,927.04
2018-02-25T09:41:59.994Z,927.05
2018-02-25T09:43:31.857Z,927.06
2018-02-25T09:45:03.777Z,927.05
2018-02-25T09:46:35.442Z,927.04
2018-02-25T09:48:07.259Z,927.03
2018-02-25T09:49:39.277Z,927.03
2018-02-25T09:51:10.992Z,927.07
2018-02-25T09:52:42.710Z,927.12
2018-02-25T09:54:14.526Z,927.13
2018-02-25T09:55:46.342Z,927.12
2018-02-25T09:57:18.160Z,927.19
2018-02-25T09:58:49.976Z,927.16
2018-02-25T10:00:21.795Z,927.24
2018-02-25T10:01:53.611Z,927.28
2018-02-25T10:03:25.580Z,927.28
2018-02-25T10:04:57.248Z,927.29
2018-02-25T10:06:29.269Z,927.30
2018-02-25T10:08:00.905Z,927.30
2018-02-25T10:09:32.957Z,927.33
2018-02-25T10:11:04.521Z,927.33
2018-02-25T10:12:36.339Z,927.37
2018-02-25T10:14:08.161Z,927.41
2018-02-25T10:15:40.127Z,927.38
2018-02-25T10:17:11.796Z,927.35
2018-02-25T10:18:43.615Z,927.38
2018-02-25T10:20:15.434Z,927.43
2018-02-25T10:21:47.253Z,927.41
2018-02-25T10:23:19.278Z,927.44
2018-02-25T10:24:50.892Z,927.44
2018-02-25T10:26:22.712Z,927.45
2018-02-25T10:27:55.085Z,927.43
2018-02-25T10:29:26.350Z,927.49
2018-02-25T10:30:58.169Z,927.53
2018-02-25T10:32:29.988Z,927.38
2018-02-25T10:34:01.957Z,927.46
2018-02-25T10:35:33.626Z,927.52
2018-02-25T10:37:05.446Z,927.50
2018-02-25T10:38:37.296Z,927.53
2018-02-25T10:40:09.297Z,927.55
2018-02-25T10:41:40.903Z,927.64
2018-02-25T10:43:13.106Z,927.59
2018-02-25T10:44:44.542Z,927.63
2018-02-25T10:46:16.683Z,927.64
2018-02-25T10:47:48.181Z,927.65
2018-02-25T10:49:20.001Z,927.63
2018-02-25T10:50:51.853Z,927.61
2018-02-25T10:52:23.640Z,927.72
2018-02-25T10:53:55.460Z,927.72
2018-02-25T10:55:27.281Z,927.75
2018-02-25T10:58:31.074Z,927.72
2018-02-25T11:00:02.744Z,927.63
2018-02-25T11:01:34.565Z,927.76
2018-02-25T11:03:06.384Z,927.79
2018-02-25T11:04:38.456Z,927.82
2018-02-25T11:06:10.026Z,927.83
2018-02-25T11:07:41.848Z,927.86
2018-02-25T11:09:13.667Z,927.94
2018-02-25T11:10:45.639Z,927.91
2018-02-25T11:12:17.309Z,927.91
2018-02-25T11:13:49.464Z,927.88
2018-02-25T11:15:20.952Z,927.89
2018-02-25T11:16:52.774Z,927.93
2018-02-25T11:18:24.596Z,927.93
2018-02-25T11:19:56.417Z,927.95
2018-02-25T11:21:28.243Z,927.75
2018-02-25T11:23:00.313Z,927.97
2018-02-25T11:24:31.883Z,927.79
2018-02-25T11:26:03.723Z,927.99
2018-02-25T11:27:35.530Z,927.88
2018-02-25T11:29:07.500Z,928.06
2018-02-25T11:30:39.172Z,928.03
2018-02-25T11:32:10.997Z,928.06
2018-02-25T11:33:43.121Z,927.87
2018-02-25T11:35:14.643Z,928.08
2018-02-25T11:36:46.462Z,928.14
2018-02-25T11:38:18.286Z,928.06
2018-02-25T11:39:50.110Z,928.12
2018-02-25T11:41:22.033Z,928.05
2018-02-25T11:42:53.754Z,928.07
2018-02-25T11:44:25.577Z,928.02
2018-02-25T11:45:57.400Z,928.13
2018-02-25T11:47:29.224Z,928.11
2018-02-25T11:49:01.251Z,928.08
2018-02-25T11:50:32.904Z,928.07
2018-02-25T11:52:04.695Z,928.11
2018-02-25T11:53:36.518Z,928.09
2018-02-25T11:55:08.342Z,928.03
2018-02-25T11:56:40.166Z,928.03
2018-02-25T11:58:12.004Z,928.01
2018-02-25T11:59:43.914Z,927.97
2018-02-25T12:01:15.639Z,928.12
2018-02-25T12:02:47.463Z,928.01
2018-02-25T12:04:19.287Z,928.00
2018-02-25T12:07:22.935Z,928.11
2018-02-25T12:08:55.063Z,928.13
2018-02-25T12:10:26.584Z,927.83
2018-02-25T12:11:58.411Z,928.09
2018-02-25T12:13:30.385Z,928.12
2018-02-25T12:15:02.058Z,928.14
2018-02-25T12:16:33.882Z,928.10
2018-02-25T12:18:05.706Z,928.10
2018-02-25T12:19:37.782Z,928.16
2018-02-25T12:21:09.400Z,928.22
2018-02-25T12:22:41.185Z,927.95
2018-02-25T12:24:13.004Z,928.08
2018-02-25T12:25:45.403Z,927.92
2018-02-25T12:27:16.651Z,928.20
2018-02-25T12:28:48.475Z,928.02
2018-02-25T12:30:20.300Z,928.08
2018-02-25T12:31:52.127Z,928.27
2018-02-25T12:33:23.948Z,928.32
2018-02-25T12:34:55.771Z,928.03
2018-02-25T12:36:27.595Z,928.08
2018-02-25T12:37:59.523Z,928.14
2018-02-25T12:39:31.243Z,928.42
2018-02-25T12:42:34.888Z,928.48
2018-02-25T12:44:06.714Z,928.31
2018-02-25T12:45:38.536Z,928.41
2018-02-25T12:47:10.364Z,928.09
2018-02-25T12:48:42.185Z,928.29
2018-02-25T12:50:14.010Z,928.37
2018-02-25T12:51:45.835Z,928.18
2018-02-25T12:53:17.660Z,927.92
2018-02-25T12:54:49.496Z,928.01
2018-02-25T12:56:21.409Z,928.02
2018-02-25T12:57:53.134Z,928.37
2018-02-25T12:59:24.962Z,928.33
2018-02-25T13:00:57.087Z,928.45
2018-02-25T13:02:28.608Z,928.41
2018-02-25T13:04:00.433Z,928.35
2018-02-25T13:05:32.258Z,928.15
2018-02-25T13:07:04.089Z,927.99
2018-02-25T13:08:36.022Z,927.99
2018-02-25T13:10:07.735Z,928.24
2018-02-25T13:11:39.560Z,928.03
2018-02-25T13:13:11.389Z,928.27
2018-02-25T13:14:43.313Z,928.24
2018-02-25T13:16:15.238Z,928.20
2018-02-25T13:17:46.861Z,928.18
2018-02-25T13:19:18.688Z,928.13
2018-02-25T13:20:50.514Z,928.18
2018-02-25T13:22:22.341Z,928.19
2018-02-25T13:23:54.168Z,928.15
2018-02-25T13:25:25.994Z,928.04
2018-02-25T13:26:57.821Z,928.13
2018-02-25T13:28:29.648Z,928.13
2018-02-25T13:30:01.475Z,928.09
2018-02-25T13:31:33.303Z,928.03
2018-02-25T13:34:37.261Z,927.97
2018-02-25T13:36:09.088Z,928.25
2018-02-25T13:37:40.611Z,928.05
2018-02-25T13:39:12.438Z,928.18
2018-02-25T13:40:44.414Z,928.18
2018-02-25T13:42:16.091Z,928.19
2018-02-25T13:43:47.917Z,928.09
2018-02-25T13:45:19.745Z,927.98
2018-02-25T13:46:51.722Z,927.93
2018-02-25T13:48:23.400Z,928.09
2018-02-25T13:49:55.227Z,927.98
2018-02-25T13:51:27.258Z,928.05
2018-02-25T13:52:58.982Z,928.08
2018-02-25T13:54:30.763Z,928.09
2018-02-25T13:56:02.560Z,928.13
2018-02-25T13:57:34.359Z,927.98
2018-02-25T13:59:06.185Z,928.02
2018-02-25T14:00:38.011Z,927.90
2018-02-25T14:02:09.836Z,927.94
2018-02-25T14:03:41.662Z,927.96
2018-02-25T14:05:13.486Z,927.99
2018-02-25T14:06:45.314Z,927.98
2018-02-25T14:09:48.961Z,927.97
2018-02-25T14:11:21.237Z,928.19
2018-02-25T14:12:52.609Z,928.37
2018-02-25T14:14:24.433Z,928.12
2018-02-25T14:15:56.263Z,928.08
2018-02-25T14:17:28.083Z,928.11
2018-02-25T14:18:59.909Z,928.06
2018-02-25T14:20:31.737Z,928.07
2018-02-25T14:22:03.559Z,928.12
2018-02-25T14:23:35.385Z,928.14
2018-02-25T14:25:07.209Z,928.15
2018-02-25T14:26:39.237Z,928.12
2018-02-25T14:28:10.862Z,928.06
2018-02-25T14:29:43.089Z,928.02
2018-02-25T14:31:14.510Z,928.05
2018-02-25T14:32:46.335Z,928.10
2018-02-25T14:34:18.164Z,928.10
2018-02-25T14:35:49.986Z,928.02
2018-02-25T14:37:21.819Z,928.09
2018-02-25T14:38:53.635Z,928.02
2018-02-25T14:40:25.512Z,928.06
2018-02-25T14:41:57.287Z,928.05
2018-02-25T14:45:00.933Z,928.04
2018-02-25T14:46:33.063Z,927.99
2018-02-25T14:48:04.683Z,928.06
2018-02-25T14:49:36.408Z,928.11
2018-02-25T14:51:08.232Z,928.10
2018-02-25T14:52:40.056Z,928.10
2018-02-25T14:54:11.880Z,928.07
2018-02-25T14:55:43.705Z,927.91
2018-02-25T14:57:15.532Z,927.74
2018-02-25T14:58:47.355Z,927.76
2018-02-25T15:00:19.183Z,927.85
2018-02-25T15:01:51.005Z,927.91
2018-02-25T15:03:23.401Z,927.94
2018-02-25T15:04:54.653Z,927.95
2018-02-25T15:06:26.578Z,928.07
2018-02-25T15:07:58.302Z,928.11
2018-02-25T15:09:30.126Z,928.11
2018-02-25T15:11:01.951Z,928.09
2018-02-25T15:12:33.777Z,928.14
2018-02-25T15:14:05.599Z,928.15
2018-02-25T15:15:37.429Z,928.08
2018-02-25T15:17:09.249Z,928.09
2018-02-25T15:18:41.281Z,928.18
2018-02-25T15:20:12.900Z,928.14
2018-02-25T15:21:44.726Z,927.99
2018-02-25T15:23:16.549Z,927.80
2018-02-25T15:24:48.476Z,927.75
2018-02-25T15:26:20.200Z,927.68
2018-02-25T15:27:52.025Z,927.64
2018-02-25T15:29:23.850Z,927.63
2018-02-25T15:30:55.676Z,927.67
2018-02-25T15:32:27.501Z,927.67
2018-02-25T15:33:59.325Z,927.74
2018-02-25T15:35:31.150Z,927.82
2018-02-25T15:37:03.125Z,927.86
2018-02-25T15:38:35.102Z,927.78
2018-02-25T15:40:06.623Z,927.78
2018-02-25T15:41:38.446Z,927.78
2018-02-25T15:43:10.371Z,927.70
2018-02-25T15:44:42.094Z,927.70
2018-02-25T15:46:13.922Z,927.71
2018-02-25T15:47:45.741Z,927.71
2018-02-25T15:49:17.715Z,927.74
2018-02-25T15:50:49.387Z,927.79
2018-02-25T15:52:21.212Z,927.63
2018-02-25T15:53:53.240Z,927.63
2018-02-25T15:55:25.009Z,927.62
2018-02-25T15:56:56.683Z,927.61
2018-02-25T15:58:28.505Z,927.57
2018-02-25T16:00:00.328Z,927.72
2018-02-25T16:01:32.251Z,927.82
2018-02-25T16:03:03.974Z,927.48
2018-02-25T16:04:35.798Z,927.66
2018-02-25T16:06:07.654Z,927.73
2018-02-25T16:07:39.447Z,927.51
2018-02-25T16:09:11.273Z,927.62
2018-02-25T16:12:14.924Z,927.51
2018-02-25T16:13:47.054Z,927.34
2018-02-25T16:15:18.576Z,927.41
2018-02-25T16:16:50.404Z,927.28
2018-02-25T16:18:22.230Z,927.29
2018-02-25T16:19:54.157Z,927.38
2018-02-25T16:21:25.884Z,927.54
2018-02-25T16:22:57.787Z,927.49
2018-02-25T16:24:29.537Z,927.37
2018-02-25T16:26:01.365Z,927.50
2018-02-25T16:27:33.190Z,927.41
2018-02-25T16:29:05.282Z,927.53
2018-02-25T16:30:36.844Z,927.13
2018-02-25T16:32:08.672Z,927.17
2018-02-25T16:33:40.499Z,927.34
2018-02-25T16:35:12.325Z,927.33
2018-02-25T16:36:44.152Z,927.27
2018-02-25T16:38:16.281Z,927.30
2018-02-25T16:39:48.303Z,927.28
2018-02-25T16:41:19.631Z,927.21
2018-02-25T16:42:51.456Z,927.07
2018-02-25T16:44:23.282Z,926.94
2018-02-25T16:47:26.932Z,927.01
2018-02-25T16:48:58.936Z,926.95
2018-02-25T16:50:30.732Z,926.96
2018-02-25T16:52:02.408Z,927.21
2018-02-25T16:53:34.231Z,927.30
2018-02-25T16:55:06.228Z,927.44
2018-02-25T16:56:37.980Z,927.12
2018-02-25T16:58:09.704Z,926.95
2018-02-25T16:59:41.529Z,926.78
2018-02-25T17:01:13.354Z,926.81
2018-02-25T17:02:45.179Z,926.83
2018-02-25T17:04:17.007Z,926.76
2018-02-25T17:05:49.130Z,926.91
2018-02-25T17:07:20.660Z,927.07
2018-02-25T17:08:52.625Z,927.24
2018-02-25T17:10:24.298Z,927.03
2018-02-25T17:11:56.123Z,926.85
2018-02-25T17:13:27.947Z,926.89
2018-02-25T17:14:59.873Z,926.84
2018-02-25T17:16:31.598Z,926.80
2018-02-25T17:18:03.422Z,926.81
2018-02-25T17:19:35.248Z,926.60
2018-02-25T17:21:07.278Z,926.79
2018-02-25T17:22:38.901Z,926.89
2018-02-25T17:24:10.728Z,926.89
2018-02-25T17:25:42.559Z,926.84
2018-02-25T17:27:14.381Z,926.57
2018-02-25T17:28:46.213Z,926.58
2018-02-25T17:30:18.037Z,926.44
2018-02-25T17:31:49.862Z,926.47
2018-02-25T17:33:21.788Z,926.52
2018-02-25T17:34:53.515Z,926.92
2018-02-25T17:36:25.341Z,926.84
2018-02-25T17:39:29.145Z,926.77
2018-02-25T17:41:00.821Z,926.57
2018-02-25T17:42:32.648Z,926.56
2018-02-25T17:44:04.474Z,926.51
2018-02-25T17:45:36.301Z,926.67
2018-02-25T17:47:08.127Z,926.64
2018-02-25T17:48:39.954Z,926.82
2018-02-25T17:50:11.781Z,926.78
2018-02-25T17:51:43.709Z,926.72
2018-02-25T17:53:15.436Z,926.52
2018-02-25T17:54:47.263Z,926.51
2018-02-25T17:57:50.917Z,926.66
2018-02-25T17:59:23.315Z,926.49
2018-02-25T18:00:54.571Z,926.58
2018-02-25T18:02:26.398Z,926.54
2018-02-25T18:03:58.526Z,926.29
2018-02-25T18:05:30.052Z,926.34
2018-02-25T18:07:01.879Z,926.52
2018-02-25T18:08:33.703Z,926.65
2018-02-25T18:10:05.781Z,926.28
2018-02-25T18:11:37.355Z,926.16
2018-02-25T18:13:09.180Z,926.13
2018-02-25T18:14:41.009Z,926.29
2018-02-25T18:16:12.834Z,926.33
2018-02-25T18:17:44.657Z,926.33
2018-02-25T18:19:16.482Z,926.42
2018-02-25T18:20:48.306Z,926.49
2018-02-25T18:22:20.130Z,926.41
2018-02-25T18:23:51.954Z,926.46
2018-02-25T18:25:23.783Z,926.54
2018-02-25T18:26:55.606Z,926.68
2018-02-25T18:28:27.533Z,926.47
2018-02-25T18:29:59.254Z,926.23
2018-02-25T18:31:31.283Z,926.19
2018-02-25T18:33:02.904Z,926.35
2018-02-25T18:34:34.730Z,926.39
2018-02-25T18:36:06.552Z,926.33
2018-02-25T18:37:38.377Z,926.41
2018-02-25T18:39:10.201Z,926.13
2018-02-25T18:40:42.025Z,926.17
2018-02-25T18:42:13.850Z,926.22
2018-02-25T18:43:45.684Z,926.42
2018-02-25T18:45:17.496Z,926.25
2018-02-25T18:46:49.419Z,925.94
2018-02-25T18:49:52.966Z,926.26
2018-02-25T18:51:25.094Z,926.18
2018-02-25T18:52:56.612Z,926.10
2018-02-25T18:54:28.471Z,926.26
2018-02-25T18:56:00.260Z,926.28
2018-02-25T18:57:32.082Z,926.12
2018-02-25T18:59:03.906Z,926.20
2018-02-25T19:00:35.729Z,926.08
2018-02-25T19:02:07.553Z,926.07
2018-02-25T19:03:39.378Z,926.05
2018-02-25T19:05:11.301Z,926.00
2018-02-25T19:06:43.045Z,926.09
2018-02-25T19:08:14.855Z,925.95
2018-02-25T19:09:46.674Z,925.89
2018-02-25T19:11:18.648Z,925.96
2018-02-25T19:12:50.327Z,925.89
2018-02-25T19:14:22.146Z,926.06
2018-02-25T19:15:53.970Z,926.05
2018-02-25T19:17:25.794Z,926.09
2018-02-25T19:18:57.618Z,926.08
2018-02-25T19:20:29.443Z,925.94
2018-02-25T19:22:01.266Z,925.89